Time;durP1;ratioP1;P1;durP2;ratioP2;P2;SDS_P1;SDS_P2;PMS_P1;PMS_P2;Temp;Humidity;BMP_temperature;BMP_pressure;BME280_temperature;BME280_humidity;BME280_pressure;Samples;Min_cycle;Max_cycle;Signal;HPM_P1;HPM_P2
2023/12/31 00:02:14;;;;;;;13.05;6.53;;;;;;;;;;5045549;28;20076;-89
2023/12/31 00:04:42;;;;;;;14.65;6.82;;;;;;;;;;5033816;28;20103;-89
2023/12/31 00:07:09;;;;;;;10.10;6.45;;;;;;;;;;5058329;28;20041;-89
2023/12/31 00:09:36;;;;;;;11.10;6.25;;;;;;;;;;5044509;28;20067;-89
2023/12/31 00:12:04;;;;;;;8.40;6.05;;;;;;;;;;5045012;28;20111;-89
2023/12/31 00:14:31;;;;;;;10.63;6.00;;;;;;;;;;5043172;28;20061;-89
2023/12/31 00:16:58;;;;;;;13.32;5.72;;;;;;;;;;5058372;28;20069;-90
2023/12/31 00:19:25;;;;;;;12.77;5.47;;;;;;;;;;5058699;28;20057;-89
2023/12/31 00:21:53;;;;;;;9.25;5.47;;;;;;;;;;5044777;28;20560;-90
2023/12/31 00:24:20;;;;;;;8.68;5.20;;;;;;;;;;5027845;28;20391;-89
2023/12/31 00:26:47;;;;;;;14.77;5.93;;;;;;;;;;5054128;28;20056;-90
2023/12/31 00:29:14;;;;;;;6.05;4.40;;;;;;;;;;5049675;28;20110;-89
2023/12/31 00:31:42;;;;;;;16.83;5.50;;;;;;;;;;5048705;28;20053;-89
2023/12/31 00:34:10;;;;;;;8.55;4.30;;;;;;;;;;5051301;28;20050;-89
2023/12/31 00:36:37;;;;;;;8.52;4.80;;;;;;;;;;5040630;28;20123;-89
2023/12/31 00:39:05;;;;;;;9.55;4.50;;;;;;;;;;5042095;28;20053;-89
2023/12/31 00:41:32;;;;;;;7.78;3.90;;;;;;;;;;5059734;28;20045;-89
2023/12/31 00:44:00;;;;;;;7.35;4.03;;;;;;;;;;5045205;28;20049;-88
2023/12/31 00:46:27;;;;;;;8.55;4.35;;;;;;;;;;5043201;28;20611;-89
2023/12/31 00:48:54;;;;;;;7.93;4.38;;;;;;;;;;5040984;28;20059;-89
2023/12/31 00:51:21;;;;;;;10.00;5.00;;;;;;;;;;5041781;28;20050;-90
2023/12/31 00:53:49;;;;;;;8.93;4.80;;;;;;;;;;5044330;28;20489;-89
2023/12/31 00:56:16;;;;;;;6.78;4.07;;;;;;;;;;5044771;28;20053;-90
2023/12/31 00:58:44;;;;;;;6.82;4.10;;;;;;;;;;5034207;28;20053;-90
2023/12/31 01:01:11;;;;;;;13.10;4.45;;;;;;;;;;5057424;28;20079;-89
2023/12/31 01:03:39;;;;;;;7.43;4.05;;;;;;;;;;5043427;28;20049;-89
2023/12/31 01:06:07;;;;;;;7.38;4.30;;;;;;;;;;5044253;28;20115;-89
2023/12/31 01:08:34;;;;;;;9.68;4.80;;;;;;;;;;5042226;28;20523;-90
2023/12/31 01:11:02;;;;;;;12.65;4.22;;;;;;;;;;5057688;28;20053;-89
2023/12/31 01:13:30;;;;;;;7.15;4.68;;;;;;;;;;5056994;28;20099;-89
2023/12/31 01:15:57;;;;;;;5.15;4.18;;;;;;;;;;5054740;28;20554;-89
2023/12/31 01:18:25;;;;;;;5.85;4.00;;;;;;;;;;5042893;28;20052;-89
2023/12/31 01:20:52;;;;;;;9.07;4.40;;;;;;;;;;5057402;28;20057;-89
2023/12/31 01:23:19;;;;;;;14.00;4.72;;;;;;;;;;5057641;28;20096;-90
2023/12/31 01:25:46;;;;;;;8.63;4.47;;;;;;;;;;5044629;28;20077;-89
2023/12/31 01:28:14;;;;;;;15.23;4.82;;;;;;;;;;5044246;28;20136;-89
2023/12/31 01:30:41;;;;;;;11.55;3.92;;;;;;;;;;5040125;28;20371;-89
2023/12/31 01:33:08;;;;;;;9.40;3.65;;;;;;;;;;5056737;28;20053;-89
2023/12/31 01:35:36;;;;;;;8.55;3.75;;;;;;;;;;5060079;28;20456;-89
2023/12/31 01:38:03;;;;;;;9.07;4.05;;;;;;;;;;5044515;28;20456;-90
2023/12/31 01:40:30;;;;;;;10.35;4.03;;;;;;;;;;5036098;28;20057;-89
2023/12/31 01:42:57;;;;;;;11.48;4.63;;;;;;;;;;5038433;28;20526;-89
2023/12/31 01:45:25;;;;;;;10.23;4.20;;;;;;;;;;5053609;28;20040;-89
2023/12/31 01:47:52;;;;;;;8.15;3.50;;;;;;;;;;5043957;28;20054;-89
2023/12/31 01:50:21;;;;;;;9.25;4.55;;;;;;;;;;5037499;28;20076;-89
2023/12/31 01:52:48;;;;;;;7.85;4.55;;;;;;;;;;5056918;28;20053;-90
2023/12/31 01:55:16;;;;;;;7.40;4.03;;;;;;;;;;5056785;28;20046;-89
2023/12/31 01:57:43;;;;;;;9.48;4.47;;;;;;;;;;5060290;28;20490;-89
2023/12/31 02:00:11;;;;;;;11.90;4.50;;;;;;;;;;5043704;28;20099;-89
2023/12/31 02:02:38;;;;;;;6.55;4.05;;;;;;;;;;5040652;28;20057;-89
2023/12/31 02:05:05;;;;;;;7.85;3.95;;;;;;;;;;5056414;28;20490;-90
2023/12/31 02:07:33;;;;;;;5.32;3.60;;;;;;;;;;5059269;28;20045;-89
2023/12/31 02:10:00;;;;;;;6.65;3.70;;;;;;;;;;5043707;28;20048;-89
2023/12/31 02:12:27;;;;;;;6.65;3.75;;;;;;;;;;5041662;28;20053;-89
2023/12/31 02:14:54;;;;;;;8.00;3.92;;;;;;;;;;5056340;28;20092;-89
2023/12/31 02:17:22;;;;;;;4.70;3.72;;;;;;;;;;5057504;28;20115;-89
2023/12/31 02:19:49;;;;;;;8.52;3.40;;;;;;;;;;5043346;28;20346;-89
2023/12/31 02:22:16;;;;;;;5.55;2.80;;;;;;;;;;5043642;28;20524;-90
2023/12/31 02:24:50;;;;;;;5.65;3.50;;;;;;;;;;5048668;28;20103;-89
2023/12/31 02:27:18;;;;;;;6.10;2.92;;;;;;;;;;5056794;28;20132;-89
2023/12/31 02:29:45;;;;;;;7.55;2.70;;;;;;;;;;5039699;28;20061;-89
2023/12/31 02:32:12;;;;;;;5.03;2.75;;;;;;;;;;5056585;28;20049;-89
2023/12/31 02:34:44;;;;;;;5.30;2.72;;;;;;;;;;5059597;28;20102;-89
2023/12/31 02:37:12;;;;;;;7.68;2.72;;;;;;;;;;5043481;28;20386;-89
2023/12/31 02:39:39;;;;;;;4.60;2.10;;;;;;;;;;5040087;28;20132;-89
2023/12/31 02:42:06;;;;;;;2.80;2.22;;;;;;;;;;5056501;28;20072;-89
2023/12/31 02:44:33;;;;;;;8.13;2.17;;;;;;;;;;5062300;28;20103;-90
2023/12/31 02:47:01;;;;;;;4.03;1.92;;;;;;;;;;5032847;28;20041;-88
2023/12/31 02:49:28;;;;;;;2.38;1.77;;;;;;;;;;5044987;28;20084;-89
2023/12/31 02:51:55;;;;;;;2.10;1.52;;;;;;;;;;5046554;28;20071;-89
2023/12/31 02:54:22;;;;;;;3.58;1.70;;;;;;;;;;5045466;28;20053;-89
2023/12/31 02:56:50;;;;;;;6.57;2.08;;;;;;;;;;5059753;28;20505;-89
2023/12/31 02:59:17;;;;;;;2.45;1.85;;;;;;;;;;5061041;28;20053;-89
2023/12/31 03:01:44;;;;;;;3.00;1.50;;;;;;;;;;5065714;28;20025;-89
2023/12/31 03:04:11;;;;;;;5.50;1.92;;;;;;;;;;5048707;28;20061;-89
2023/12/31 03:06:39;;;;;;;2.38;1.25;;;;;;;;;;5026919;28;20049;-89
2023/12/31 03:09:06;;;;;;;2.97;1.50;;;;;;;;;;5059709;28;20136;-89
2023/12/31 03:11:34;;;;;;;2.42;1.58;;;;;;;;;;5062109;28;20053;-89
2023/12/31 03:14:01;;;;;;;2.90;1.63;;;;;;;;;;5039863;28;20049;-89
2023/12/31 03:16:28;;;;;;;4.28;1.33;;;;;;;;;;5044762;28;20080;-89
2023/12/31 03:18:56;;;;;;;2.53;1.70;;;;;;;;;;5045416;28;20140;-90
2023/12/31 03:21:23;;;;;;;2.35;1.30;;;;;;;;;;5045134;28;20158;-89
2023/12/31 03:23:50;;;;;;;2.10;1.13;;;;;;;;;;5059181;28;20110;-89
2023/12/31 03:26:18;;;;;;;1.42;1.15;;;;;;;;;;5059365;28;20045;-90
2023/12/31 03:28:45;;;;;;;2.40;1.70;;;;;;;;;;5045962;28;20128;-89
2023/12/31 03:31:12;;;;;;;2.22;1.52;;;;;;;;;;5046189;28;20056;-89
2023/12/31 03:33:40;;;;;;;2.25;1.80;;;;;;;;;;5042226;28;20053;-89
2023/12/31 03:36:07;;;;;;;2.60;1.70;;;;;;;;;;5059135;28;20478;-89
2023/12/31 03:38:35;;;;;;;4.35;1.38;;;;;;;;;;5061302;28;20057;-88
2023/12/31 03:41:02;;;;;;;3.58;2.20;;;;;;;;;;5045760;28;20049;-89
2023/12/31 03:43:29;;;;;;;2.92;1.60;;;;;;;;;;5044043;28;20045;-89
2023/12/31 03:45:57;;;;;;;3.47;1.75;;;;;;;;;;5058633;28;20140;-89
2023/12/31 03:48:24;;;;;;;1.60;0.95;;;;;;;;;;5059734;28;20056;-88
2023/12/31 03:50:51;;;;;;;1.25;1.15;;;;;;;;;;5040891;28;20063;-89
2023/12/31 03:53:19;;;;;;;3.97;1.48;;;;;;;;;;5041853;28;20049;-89
2023/12/31 03:55:46;;;;;;;5.28;2.53;;;;;;;;;;5045586;28;20055;-90
2023/12/31 03:58:14;;;;;;;4.43;2.85;;;;;;;;;;5030019;28;20104;-89
2023/12/31 04:00:41;;;;;;;10.65;5.20;;;;;;;;;;5045008;28;20498;-90
2023/12/31 04:03:08;;;;;;;6.22;3.28;;;;;;;;;;5038019;28;20103;-89
2023/12/31 04:05:36;;;;;;;4.53;2.08;;;;;;;;;;5061392;28;20077;-89
2023/12/31 04:08:03;;;;;;;1.70;1.60;;;;;;;;;;5045511;28;20596;-89
2023/12/31 04:10:32;;;;;;;2.92;1.50;;;;;;;;;;5043389;28;20067;-89
2023/12/31 04:12:59;;;;;;;2.90;1.27;;;;;;;;;;5057893;28;20059;-89
2023/12/31 04:15:26;;;;;;;2.38;1.45;;;;;;;;;;5063803;28;20068;-89
2023/12/31 04:17:56;;;;;;;1.45;1.35;;;;;;;;;;5058424;28;20045;-90
2023/12/31 04:20:23;;;;;;;4.03;1.63;;;;;;;;;;5044354;28;20049;-89
2023/12/31 04:22:50;;;;;;;2.78;1.15;;;;;;;;;;5037117;28;20053;-89
2023/12/31 04:25:17;;;;;;;2.28;1.33;;;;;;;;;;5038367;28;20132;-89
2023/12/31 04:27:45;;;;;;;2.58;1.25;;;;;;;;;;5044809;28;20057;-89
2023/12/31 04:30:12;;;;;;;4.13;1.58;;;;;;;;;;5044861;28;20110;-89
2023/12/31 04:32:40;;;;;;;2.35;1.40;;;;;;;;;;5041566;28;20068;-89
2023/12/31 04:35:07;;;;;;;3.88;1.55;;;;;;;;;;5057848;28;20049;-89
2023/12/31 04:37:34;;;;;;;3.40;1.50;;;;;;;;;;5055393;28;20049;-89
2023/12/31 04:40:02;;;;;;;1.55;1.25;;;;;;;;;;5033855;28;20057;-90
2023/12/31 04:42:29;;;;;;;2.20;1.42;;;;;;;;;;5042817;28;20216;-89
2023/12/31 04:44:59;;;;;;;4.07;1.73;;;;;;;;;;5057423;28;20460;-89
2023/12/31 04:47:30;;;;;;;1.80;1.58;;;;;;;;;;5059180;28;20053;-89
2023/12/31 04:49:57;;;;;;;3.58;1.52;;;;;;;;;;5047363;28;20056;-89
2023/12/31 04:52:24;;;;;;;3.35;2.78;;;;;;;;;;5058577;28;20126;-89
2023/12/31 04:54:52;;;;;;;1.80;1.70;;;;;;;;;;5043733;28;20068;-89
2023/12/31 04:57:19;;;;;;;2.47;2.20;;;;;;;;;;5044195;28;20106;-89
2023/12/31 04:59:46;;;;;;;5.38;2.80;;;;;;;;;;5061727;28;20053;-90
2023/12/31 05:02:14;;;;;;;4.32;1.80;;;;;;;;;;5045487;28;20103;-89
2023/12/31 05:04:41;;;;;;;2.20;1.95;;;;;;;;;;5024208;28;20072;-89
2023/12/31 05:07:09;;;;;;;2.75;2.40;;;;;;;;;;5057088;28;20049;-89
2023/12/31 05:09:37;;;;;;;3.47;2.25;;;;;;;;;;5059914;28;20151;-89
2023/12/31 05:12:05;;;;;;;3.95;1.73;;;;;;;;;;5044298;28;20079;-89
2023/12/31 05:14:32;;;;;;;4.60;2.70;;;;;;;;;;5033559;28;20050;-89
2023/12/31 05:16:59;;;;;;;2.03;1.92;;;;;;;;;;5038308;28;20482;-90
2023/12/31 05:19:26;;;;;;;3.28;2.25;;;;;;;;;;5041963;28;20057;-89
2023/12/31 05:21:53;;;;;;;13.68;6.47;;;;;;;;;;5056995;28;20060;-89
2023/12/31 05:24:21;;;;;;;5.93;4.50;;;;;;;;;;5057352;28;20468;-89
2023/12/31 05:26:48;;;;;;;8.07;4.40;;;;;;;;;;5043880;28;20057;-89
2023/12/31 05:29:15;;;;;;;5.00;3.55;;;;;;;;;;5044153;28;20493;-89
2023/12/31 05:31:42;;;;;;;3.85;3.35;;;;;;;;;;5047464;28;20068;-89
2023/12/31 05:34:10;;;;;;;5.57;2.20;;;;;;;;;;5043860;28;20136;-89
2023/12/31 05:36:37;;;;;;;4.25;1.92;;;;;;;;;;5038289;28;20050;-89
2023/12/31 05:39:05;;;;;;;2.17;1.80;;;;;;;;;;5018933;28;20053;-89
2023/12/31 05:41:32;;;;;;;2.45;1.92;;;;;;;;;;5033431;28;20046;-89
2023/12/31 05:44:00;;;;;;;3.95;2.20;;;;;;;;;;5056687;28;20502;-89
2023/12/31 05:46:27;;;;;;;6.40;3.22;;;;;;;;;;5058696;28;20050;-89
2023/12/31 05:48:55;;;;;;;6.55;4.03;;;;;;;;;;5043738;28;20049;-89
2023/12/31 05:51:22;;;;;;;5.97;3.30;;;;;;;;;;5042771;28;20076;-89
2023/12/31 05:53:49;;;;;;;8.02;3.80;;;;;;;;;;5056338;28;20091;-89
2023/12/31 05:56:17;;;;;;;4.68;3.50;;;;;;;;;;5041454;28;20049;-90
2023/12/31 05:58:46;;;;;;;6.65;2.75;;;;;;;;;;5032653;28;20046;-89
2023/12/31 06:01:14;;;;;;;4.55;2.45;;;;;;;;;;5056830;28;20383;-89
2023/12/31 06:03:41;;;;;;;3.22;2.42;;;;;;;;;;5056317;28;20572;-89
2023/12/31 06:06:08;;;;;;;3.55;2.80;;;;;;;;;;5039942;28;20049;-88
2023/12/31 06:08:36;;;;;;;5.15;3.00;;;;;;;;;;5041887;28;20076;-89
2023/12/31 06:11:03;;;;;;;2.33;2.13;;;;;;;;;;5056704;28;20473;-90
2023/12/31 06:13:31;;;;;;;4.05;2.40;;;;;;;;;;5058204;28;20054;-89
2023/12/31 06:15:58;;;;;;;3.35;2.30;;;;;;;;;;5044467;28;20053;-89
2023/12/31 06:18:25;;;;;;;2.85;2.10;;;;;;;;;;5045264;28;20127;-89
2023/12/31 06:20:53;;;;;;;5.60;2.63;;;;;;;;;;5060294;28;20448;-89
2023/12/31 06:23:21;;;;;;;6.13;2.75;;;;;;;;;;5060616;28;20057;-89
2023/12/31 06:25:48;;;;;;;6.00;2.70;;;;;;;;;;5047181;28;20493;-90
2023/12/31 06:28:15;;;;;;;4.10;3.28;;;;;;;;;;5047529;28;20052;-89
2023/12/31 06:30:42;;;;;;;4.45;4.00;;;;;;;;;;5022820;28;20056;-90
2023/12/31 06:33:10;;;;;;;12.52;4.30;;;;;;;;;;5047087;28;20048;-89
2023/12/31 06:35:37;;;;;;;10.18;3.38;;;;;;;;;;5047164;28;20488;-90
2023/12/31 06:38:04;;;;;;;9.63;3.55;;;;;;;;;;5047294;28;20110;-90
2023/12/31 06:40:32;;;;;;;6.00;3.50;;;;;;;;;;5045127;28;20463;-90
2023/12/31 06:42:59;;;;;;;7.20;3.25;;;;;;;;;;5058157;28;20050;-89
2023/12/31 06:45:26;;;;;;;4.70;3.13;;;;;;;;;;5046279;28;20107;-89
2023/12/31 06:47:53;;;;;;;6.90;3.20;;;;;;;;;;5064360;28;20045;-89
2023/12/31 06:50:21;;;;;;;5.68;2.92;;;;;;;;;;5046600;28;20075;-89
2023/12/31 06:52:48;;;;;;;6.32;3.17;;;;;;;;;;5060106;28;20045;-89
2023/12/31 06:55:15;;;;;;;5.68;3.28;;;;;;;;;;5059327;28;20056;-89
2023/12/31 06:57:43;;;;;;;4.10;2.97;;;;;;;;;;5051645;28;20055;-90
2023/12/31 07:00:10;;;;;;;3.75;3.35;;;;;;;;;;5060020;28;20076;-89
2023/12/31 07:02:38;;;;;;;3.55;3.20;;;;;;;;;;5062387;28;20049;-89
2023/12/31 07:05:07;;;;;;;7.88;4.47;;;;;;;;;;5046316;28;20053;-89
2023/12/31 07:07:36;;;;;;;5.40;4.00;;;;;;;;;;5044141;28;20624;-89
2023/12/31 07:10:04;;;;;;;6.53;3.97;;;;;;;;;;5043063;28;20112;-89
2023/12/31 07:12:31;;;;;;;8.95;5.18;;;;;;;;;;5044966;28;20494;-89
2023/12/31 07:14:58;;;;;;;8.68;4.97;;;;;;;;;;5045974;28;20048;-89
2023/12/31 07:17:26;;;;;;;7.43;4.85;;;;;;;;;;5044843;28;20075;-89
2023/12/31 07:19:56;;;;;;;10.00;5.35;;;;;;;;;;5058136;28;20132;-89
2023/12/31 07:22:24;;;;;;;8.27;5.90;;;;;;;;;;5060484;28;20053;-90
2023/12/31 07:24:52;;;;;;;10.50;6.97;;;;;;;;;;5045815;28;20052;-89
2023/12/31 07:27:19;;;;;;;15.45;7.40;;;;;;;;;;5045821;28;20057;-89
2023/12/31 07:29:46;;;;;;;11.30;8.23;;;;;;;;;;5058091;28;20072;-89
2023/12/31 07:32:13;;;;;;;18.52;10.68;;;;;;;;;;5042516;28;20103;-89
2023/12/31 07:34:41;;;;;;;17.98;11.05;;;;;;;;;;5050377;28;20414;-89
2023/12/31 07:37:08;;;;;;;12.93;9.52;;;;;;;;;;5059057;28;20486;-89
2023/12/31 07:39:36;;;;;;;12.27;8.98;;;;;;;;;;5061941;28;20328;-89
2023/12/31 07:42:06;;;;;;;8.95;5.95;;;;;;;;;;5046015;28;20041;-89
2023/12/31 07:44:33;;;;;;;14.18;7.78;;;;;;;;;;5043467;28;20080;-89
2023/12/31 07:47:03;;;;;;;9.27;6.00;;;;;;;;;;5058881;28;20049;-89
2023/12/31 07:49:30;;;;;;;14.63;9.13;;;;;;;;;;5061083;28;20461;-89
2023/12/31 07:51:58;;;;;;;23.95;12.43;;;;;;;;;;5045920;28;20132;-88
2023/12/31 07:54:25;;;;;;;126.07;56.55;;;;;;;;;;5044326;28;20460;-89
2023/12/31 07:56:53;;;;;;;41.95;21.52;;;;;;;;;;5058888;28;20104;-89
2023/12/31 07:59:20;;;;;;;74.53;39.75;;;;;;;;;;5050331;28;20049;-89
2023/12/31 08:01:47;;;;;;;41.42;29.80;;;;;;;;;;5042658;28;20042;-89
2023/12/31 08:04:15;;;;;;;10.45;7.25;;;;;;;;;;5051543;28;20103;-89
2023/12/31 08:06:42;;;;;;;26.63;18.73;;;;;;;;;;5045756;28;20481;-89
2023/12/31 08:09:13;;;;;;;10.05;8.43;;;;;;;;;;5045389;28;20053;-89
2023/12/31 08:11:40;;;;;;;7.72;6.30;;;;;;;;;;5041896;28;20127;-90
2023/12/31 08:14:07;;;;;;;7.30;6.32;;;;;;;;;;5058060;28;20069;-89
2023/12/31 08:16:35;;;;;;;6.32;5.03;;;;;;;;;;5060895;28;20053;-88
2023/12/31 08:19:04;;;;;;;16.80;10.20;;;;;;;;;;5044440;28;20124;-89
2023/12/31 08:21:31;;;;;;;15.40;10.45;;;;;;;;;;5043174;28;20103;-90
2023/12/31 08:23:59;;;;;;;12.85;8.18;;;;;;;;;;5052055;28;20132;-90
2023/12/31 08:26:26;;;;;;;9.48;6.05;;;;;;;;;;5039365;28;20110;-89
2023/12/31 08:28:53;;;;;;;11.68;8.60;;;;;;;;;;5058156;28;20053;-89
2023/12/31 08:31:20;;;;;;;7.82;6.72;;;;;;;;;;5058616;28;20046;-90
2023/12/31 08:33:48;;;;;;;8.85;5.50;;;;;;;;;;5044689;28;20464;-89
2023/12/31 08:36:15;;;;;;;6.60;5.72;;;;;;;;;;5044788;28;20140;-89
2023/12/31 08:38:42;;;;;;;8.15;5.95;;;;;;;;;;5044701;28;20064;-90
2023/12/31 08:41:09;;;;;;;9.52;6.47;;;;;;;;;;5044976;28;20102;-88
2023/12/31 08:43:37;;;;;;;9.48;6.88;;;;;;;;;;5041893;28;21027;-89
2023/12/31 08:46:05;;;;;;;12.73;6.82;;;;;;;;;;5041329;28;20049;-89
2023/12/31 08:48:32;;;;;;;12.18;7.13;;;;;;;;;;5060008;28;20061;-90
2023/12/31 08:50:59;;;;;;;7.35;5.93;;;;;;;;;;5044432;28;20044;-90
2023/12/31 08:53:26;;;;;;;9.65;6.10;;;;;;;;;;5042842;28;20044;-89
2023/12/31 08:55:54;;;;;;;6.25;5.65;;;;;;;;;;5057619;28;20049;-90
2023/12/31 08:58:21;;;;;;;12.82;9.32;;;;;;;;;;5058363;28;20489;-89
2023/12/31 09:00:48;;;;;;;9.10;6.68;;;;;;;;;;5044861;28;20051;-89
2023/12/31 09:03:16;;;;;;;11.00;6.75;;;;;;;;;;5028690;28;20402;-89
2023/12/31 09:05:43;;;;;;;7.30;6.07;;;;;;;;;;5036713;28;20136;-89
2023/12/31 09:08:13;;;;;;;9.32;5.68;;;;;;;;;;5029672;28;20457;-89
2023/12/31 09:10:40;;;;;;;9.45;6.80;;;;;;;;;;5043998;28;20118;-89
2023/12/31 09:13:07;;;;;;;13.65;8.68;;;;;;;;;;5037752;28;20501;-90
2023/12/31 09:15:36;;;;;;;13.35;8.52;;;;;;;;;;5036678;28;20049;-90
2023/12/31 09:18:04;;;;;;;15.15;10.23;;;;;;;;;;5050947;28;20119;-90
2023/12/31 09:20:32;;;;;;;14.25;9.60;;;;;;;;;;5043980;28;20437;-89
2023/12/31 09:22:59;;;;;;;13.88;9.63;;;;;;;;;;5044428;28;20473;-89
2023/12/31 09:25:27;;;;;;;15.50;9.25;;;;;;;;;;5043190;28;20053;-90
2023/12/31 09:27:54;;;;;;;13.68;9.10;;;;;;;;;;5057657;28;20132;-90
2023/12/31 09:30:21;;;;;;;14.85;10.40;;;;;;;;;;5057871;28;20544;-90
2023/12/31 09:32:49;;;;;;;17.83;11.23;;;;;;;;;;5043690;28;20044;-90
2023/12/31 09:35:16;;;;;;;13.18;9.90;;;;;;;;;;5044577;28;20490;-90
2023/12/31 09:37:44;;;;;;;15.05;8.65;;;;;;;;;;5044691;28;20060;-90
2023/12/31 09:40:12;;;;;;;13.05;8.63;;;;;;;;;;5029264;28;20050;-90
2023/12/31 09:42:49;;;;;;;22.73;17.88;;;;;;;;;;5039994;28;20050;-90
2023/12/31 09:45:20;;;;;;;12.73;9.50;;;;;;;;;;5056937;28;20060;-89
2023/12/31 09:47:48;;;;;;;11.77;8.60;;;;;;;;;;5033159;28;20076;-90
2023/12/31 09:50:19;;;;;;;13.93;8.70;;;;;;;;;;5040755;28;20059;-90
2023/12/31 09:52:47;;;;;;;10.65;7.63;;;;;;;;;;5035566;28;20450;-90
2023/12/31 09:55:16;;;;;;;14.48;8.95;;;;;;;;;;5060868;28;20072;-89
2023/12/31 09:57:43;;;;;;;9.93;7.03;;;;;;;;;;5048426;28;20520;-90
2023/12/31 10:00:11;;;;;;;13.25;7.55;;;;;;;;;;5048293;28;20044;-89
2023/12/31 10:02:38;;;;;;;11.45;6.95;;;;;;;;;;5039738;28;20110;-91
2023/12/31 10:05:09;;;;;;;11.18;6.50;;;;;;;;;;5034580;28;20058;-90
2023/12/31 10:07:37;;;;;;;10.05;6.93;;;;;;;;;;5043744;28;20045;-89
2023/12/31 10:10:05;;;;;;;7.10;5.20;;;;;;;;;;5060790;28;20076;-90
2023/12/31 10:12:33;;;;;;;5.45;4.28;;;;;;;;;;5062820;28;20046;-89
2023/12/31 10:15:00;;;;;;;6.13;4.80;;;;;;;;;;5047591;28;20052;-89
2023/12/31 10:17:29;;;;;;;4.78;4.28;;;;;;;;;;5046249;28;20186;-89
2023/12/31 10:19:57;;;;;;;7.47;5.60;;;;;;;;;;5044060;28;20476;-89
2023/12/31 10:22:25;;;;;;;15.32;8.20;;;;;;;;;;5045193;28;20104;-90
2023/12/31 10:24:52;;;;;;;17.42;12.52;;;;;;;;;;5047230;28;20055;-88
2023/12/31 10:27:20;;;;;;;9.77;6.45;;;;;;;;;;5047194;28;20049;-89
2023/12/31 10:29:47;;;;;;;10.57;6.25;;;;;;;;;;5061958;28;20163;-89
2023/12/31 10:32:14;;;;;;;8.40;5.50;;;;;;;;;;5075001;28;20029;-89
2023/12/31 10:34:42;;;;;;;6.20;4.63;;;;;;;;;;5067704;28;20075;-89
2023/12/31 10:37:10;;;;;;;9.98;8.82;;;;;;;;;;5047334;28;20056;-89
2023/12/31 10:39:38;;;;;;;8.05;6.40;;;;;;;;;;5044604;28;20057;-89
2023/12/31 10:42:07;;;;;;;6.53;4.78;;;;;;;;;;5060415;28;20049;-89
2023/12/31 10:44:36;;;;;;;7.07;5.00;;;;;;;;;;5051889;28;20061;-88
2023/12/31 10:47:04;;;;;;;7.70;4.25;;;;;;;;;;5066833;28;20052;-88
2023/12/31 10:49:32;;;;;;;5.13;4.35;;;;;;;;;;5045049;28;20053;-90
2023/12/31 10:52:01;;;;;;;5.05;4.55;;;;;;;;;;5044175;28;20144;-89
2023/12/31 10:54:46;;;;;;;4.07;3.65;;;;;;;;;;5061337;28;20490;-89
2023/12/31 10:57:15;;;;;;;4.43;3.20;;;;;;;;;;5046855;28;20067;-90
2023/12/31 10:59:42;;;;;;;3.60;2.72;;;;;;;;;;5046869;28;20095;-89
2023/12/31 11:02:17;;;;;;;3.15;2.95;;;;;;;;;;5046706;28;20072;-89
2023/12/31 11:04:48;;;;;;;2.83;2.63;;;;;;;;;;5050500;28;20073;-88
2023/12/31 11:07:16;;;;;;;2.50;2.30;;;;;;;;;;5060154;28;20049;-89
2023/12/31 11:09:48;;;;;;;3.80;2.20;;;;;;;;;;5059540;28;20054;-89
2023/12/31 11:12:16;;;;;;;2.38;2.10;;;;;;;;;;5043231;28;20045;-89
2023/12/31 11:14:46;;;;;;;2.20;2.10;;;;;;;;;;5042633;28;20137;-88
2023/12/31 11:17:19;;;;;;;3.47;2.25;;;;;;;;;;5043368;28;20049;-89
2023/12/31 11:20:26;;;;;;;2.00;1.90;;;;;;;;;;5037634;28;20046;-89
2023/12/31 11:23:17;;;;;;;1.70;1.60;;;;;;;;;;5059232;28;20049;-89
2023/12/31 11:25:46;;;;;;;2.55;2.03;;;;;;;;;;5051491;28;20486;-88
2023/12/31 11:28:13;;;;;;;1.80;1.70;;;;;;;;;;5059667;28;20486;-89
2023/12/31 11:30:49;;;;;;;1.98;1.88;;;;;;;;;;5062707;28;20061;-89
2023/12/31 11:33:30;;;;;;;2.95;1.80;;;;;;;;;;5046091;28;20057;-87
2023/12/31 11:35:59;;;;;;;2.47;1.60;;;;;;;;;;5033078;28;20054;-88
2023/12/31 11:38:27;;;;;;;3.00;1.70;;;;;;;;;;5057109;28;20478;-89
2023/12/31 11:40:54;;;;;;;2.00;1.90;;;;;;;;;;5059198;28;20054;-89
2023/12/31 11:43:23;;;;;;;2.00;1.90;;;;;;;;;;5060048;28;20123;-88
2023/12/31 11:45:51;;;;;;;1.80;1.70;;;;;;;;;;5049981;28;20049;-89
2023/12/31 11:48:24;;;;;;;1.75;1.52;;;;;;;;;;5060277;28;20055;-89
2023/12/31 11:50:53;;;;;;;1.73;1.63;;;;;;;;;;5059952;28;20088;-89
2023/12/31 11:53:22;;;;;;;2.35;2.15;;;;;;;;;;5059099;28;20049;-88
2023/12/31 11:55:57;;;;;;;1.70;1.55;;;;;;;;;;5045491;28;20045;-88
2023/12/31 11:58:28;;;;;;;2.00;1.90;;;;;;;;;;5028061;28;20063;-89
2023/12/31 12:00:56;;;;;;;3.75;2.60;;;;;;;;;;5058697;28;20045;-89
2023/12/31 12:03:23;;;;;;;4.85;3.55;;;;;;;;;;5033676;28;20059;-88
2023/12/31 12:05:50;;;;;;;2.88;2.33;;;;;;;;;;5058667;28;20060;-89
2023/12/31 12:08:18;;;;;;;1.80;1.70;;;;;;;;;;5058561;28;20056;-88
2023/12/31 12:10:45;;;;;;;3.28;2.47;;;;;;;;;;5045395;28;20075;-89
2023/12/31 12:13:14;;;;;;;3.42;2.22;;;;;;;;;;5045009;28;20412;-89
2023/12/31 12:15:41;;;;;;;3.08;2.15;;;;;;;;;;5041612;28;20056;-88
2023/12/31 12:18:21;;;;;;;3.20;2.72;;;;;;;;;;5057880;28;20123;-89
2023/12/31 12:20:49;;;;;;;2.08;1.88;;;;;;;;;;5034889;28;20053;-89
2023/12/31 12:23:17;;;;;;;2.00;1.90;;;;;;;;;;5041587;28;20111;-89
2023/12/31 12:25:44;;;;;;;2.13;1.92;;;;;;;;;;5054476;28;20074;-89
2023/12/31 12:28:12;;;;;;;2.08;1.98;;;;;;;;;;5029606;28;20054;-89
2023/12/31 12:30:43;;;;;;;1.92;1.60;;;;;;;;;;5061379;28;20057;-89
2023/12/31 12:33:13;;;;;;;1.98;1.88;;;;;;;;;;5044949;28;20048;-88
2023/12/31 12:35:43;;;;;;;2.15;2.00;;;;;;;;;;5041603;28;20517;-89
2023/12/31 12:38:14;;;;;;;1.70;1.60;;;;;;;;;;5041614;28;20049;-88
2023/12/31 12:40:41;;;;;;;2.67;2.00;;;;;;;;;;5061541;28;20106;-89
2023/12/31 12:43:12;;;;;;;1.88;1.77;;;;;;;;;;5045431;28;20072;-88
2023/12/31 12:45:40;;;;;;;1.98;1.77;;;;;;;;;;5041591;28;20118;-89
2023/12/31 12:48:07;;;;;;;3.30;2.00;;;;;;;;;;5058078;28;20053;-87
2023/12/31 12:50:35;;;;;;;1.92;1.83;;;;;;;;;;5060034;28;20052;-88
2023/12/31 12:53:02;;;;;;;1.83;1.73;;;;;;;;;;5045350;28;20064;-88
2023/12/31 12:55:30;;;;;;;3.25;2.95;;;;;;;;;;5034835;28;20042;-89
2023/12/31 12:57:57;;;;;;;1.55;1.45;;;;;;;;;;5040926;28;20053;-89
2023/12/31 13:00:25;;;;;;;1.80;1.70;;;;;;;;;;5044226;28;20045;-88
2023/12/31 13:02:52;;;;;;;1.90;1.80;;;;;;;;;;5056690;28;20382;-88
2023/12/31 13:05:20;;;;;;;1.95;1.70;;;;;;;;;;5044011;28;20053;-89
2023/12/31 13:07:47;;;;;;;3.60;1.70;;;;;;;;;;5057591;28;20049;-88
2023/12/31 13:10:14;;;;;;;2.00;1.90;;;;;;;;;;5041183;28;20056;-88
2023/12/31 13:12:42;;;;;;;2.95;1.60;;;;;;;;;;5060853;28;20048;-88
2023/12/31 13:15:09;;;;;;;2.38;1.73;;;;;;;;;;5022160;28;20054;-89
2023/12/31 13:17:36;;;;;;;1.75;1.65;;;;;;;;;;5034170;28;20080;-89
2023/12/31 13:20:05;;;;;;;2.10;1.73;;;;;;;;;;5022926;28;20077;-89
2023/12/31 13:22:33;;;;;;;2.03;1.80;;;;;;;;;;5039556;28;20049;-90
2023/12/31 13:25:00;;;;;;;2.13;1.73;;;;;;;;;;5057164;28;20052;-89
2023/12/31 13:27:29;;;;;;;1.45;1.35;;;;;;;;;;5058239;28;20544;-89
2023/12/31 13:29:56;;;;;;;1.90;1.80;;;;;;;;;;5044527;28;20065;-89
2023/12/31 13:32:23;;;;;;;1.88;1.77;;;;;;;;;;5043200;28;20120;-89
2023/12/31 13:34:51;;;;;;;1.70;1.60;;;;;;;;;;5053636;28;20103;-88
2023/12/31 13:37:18;;;;;;;2.05;1.95;;;;;;;;;;5027663;28;20046;-89
2023/12/31 13:39:45;;;;;;;2.35;1.80;;;;;;;;;;5057480;28;20046;-89
2023/12/31 13:42:13;;;;;;;2.05;1.85;;;;;;;;;;5057393;28;20138;-88
2023/12/31 13:44:40;;;;;;;1.75;1.65;;;;;;;;;;5065336;28;20050;-89
2023/12/31 13:47:07;;;;;;;1.83;1.73;;;;;;;;;;5057105;28;20107;-89
2023/12/31 13:49:36;;;;;;;1.63;1.52;;;;;;;;;;5059813;28;20514;-90
2023/12/31 13:52:03;;;;;;;1.52;1.42;;;;;;;;;;5044067;28;20412;-87
2023/12/31 13:54:31;;;;;;;1.58;1.48;;;;;;;;;;5042168;28;20080;-89
2023/12/31 13:56:58;;;;;;;1.73;1.63;;;;;;;;;;5056956;28;20115;-88
2023/12/31 13:59:25;;;;;;;2.63;2.42;;;;;;;;;;5058597;28;20076;-90
2023/12/31 14:01:53;;;;;;;2.08;1.80;;;;;;;;;;5043867;28;20053;-89
2023/12/31 14:04:21;;;;;;;2.25;1.83;;;;;;;;;;5043439;28;20501;-89
2023/12/31 14:06:48;;;;;;;1.90;1.77;;;;;;;;;;5057051;28;20057;-89
2023/12/31 14:09:15;;;;;;;1.80;1.70;;;;;;;;;;5056818;28;20495;-89
2023/12/31 14:11:42;;;;;;;2.35;2.13;;;;;;;;;;5056730;28;20053;-89
2023/12/31 14:14:10;;;;;;;2.00;1.90;;;;;;;;;;5057056;28;20460;-89
2023/12/31 14:16:38;;;;;;;3.72;2.05;;;;;;;;;;5073035;28;20053;-88
2023/12/31 14:19:06;;;;;;;2.10;1.90;;;;;;;;;;5043803;28;20049;-89
2023/12/31 14:21:49;;;;;;;2.90;2.30;;;;;;;;;;5033207;28;20057;-88
2023/12/31 14:24:16;;;;;;;2.20;2.00;;;;;;;;;;5056502;28;20061;-89
2023/12/31 14:26:44;;;;;;;2.72;1.80;;;;;;;;;;5048444;28;20053;-88
2023/12/31 14:29:11;;;;;;;2.30;2.10;;;;;;;;;;5056758;28;20552;-88
2023/12/31 14:31:38;;;;;;;1.90;1.80;;;;;;;;;;5053713;28;20093;-88
2023/12/31 14:34:05;;;;;;;1.90;1.80;;;;;;;;;;5033199;28;20071;-88
2023/12/31 14:36:38;;;;;;;3.08;2.47;;;;;;;;;;5040646;28;20057;-88
2023/12/31 14:39:07;;;;;;;3.05;2.70;;;;;;;;;;5059445;28;20564;-88
2023/12/31 14:41:35;;;;;;;2.70;2.13;;;;;;;;;;5062557;28;20520;-87
2023/12/31 14:44:03;;;;;;;2.70;2.50;;;;;;;;;;5040441;28;20049;-87
2023/12/31 14:46:31;;;;;;;2.45;2.25;;;;;;;;;;5045434;28;20422;-87